Wetterdaten: Woche 26.07.10 - 01.08.10 (KW30)
Datum Zeit Temp. A. Feuchte A. Luftdruck Regen Wind Richtung Taupunkt Windchill Windben
26.07.2010 00:00 15,6 C 73 % 1012,5 hPa 0,0 l/m 2,8 km/h NW 10,6 C 15,6 C 8,4 km/h
26.07.2010 01:00 15,3 C 73 % 1012,2 hPa 0,0 l/m 2,9 km/h NW 10,4 C 15,3 C 9,7 km/h
26.07.2010 02:00 15,1 C 74 % 1011,8 hPa 0,0 l/m 2,7 km/h W-NW 10,4 C 15,1 C 10,9 km/h
26.07.2010 03:00 14,9 C 75 % 1011,4 hPa 0,0 l/m 3,0 km/h N-NO 10,4 C 14,9 C 10,9 km/h
26.07.2010 04:00 14,9 C 75 % 1011,5 hPa 0,0 l/m 2,3 km/h NW 10,4 C 14,9 C 9,7 km/h
26.07.2010 05:00 14,9 C 75 % 1011,6 hPa 0,3 l/m 1,6 km/h W 10,4 C 14,9 C 7,2 km/h
26.07.2010 06:00 14,6 C 78 % 1011,9 hPa 0,0 l/m 2,1 km/h NW 10,8 C 14,6 C 7,2 km/h
26.07.2010 07:00 14,6 C 78 % 1011,9 hPa 0,3 l/m 2,6 km/h N-NW 10,8 C 14,6 C 9,3 km/h
26.07.2010 08:00 14,9 C 79 % 1012,1 hPa 0,0 l/m 1,8 km/h NW 11,2 C 14,9 C 6,8 km/h
26.07.2010 09:00 15,7 C 77 % 1012,2 hPa 0,0 l/m 2,3 km/h NW 11,6 C 15,7 C 9,3 km/h
26.07.2010 10:00 16,2 C 74 % 1012,1 hPa 0,0 l/m 3,4 km/h NW 11,5 C 16,2 C 10,1 km/h
26.07.2010 11:00 16,8 C 73 % 1012,1 hPa 0,0 l/m 4,6 km/h NW 12,0 C 16,8 C 11,3 km/h
26.07.2010 12:00 17,5 C 72 % 1012,3 hPa 0,0 l/m 3,1 km/h NW 12,4 C 17,5 C 8,9 km/h
26.07.2010 13:00 17,9 C 73 % 1012,3 hPa 0,0 l/m 3,3 km/h NW 12,9 C 17,9 C 9,7 km/h
26.07.2010 14:00 18,3 C 68 % 1012,2 hPa 0,0 l/m 4,8 km/h NW 12,3 C 18,3 C 13,3 km/h
26.07.2010 15:00 18,0 C 71 % 1012,3 hPa 0,0 l/m 2,3 km/h N-NW 12,6 C 18,0 C 6,4 km/h
26.07.2010 16:00 18,1 C 71 % 1012,0 hPa 0,0 l/m 3,0 km/h N-NW 12,7 C 18,1 C 8,0 km/h
26.07.2010 17:00 18,2 C 70 % 1011,7 hPa 0,0 l/m 1,6 km/h N-NW 12,6 C 18,2 C 5,2 km/h
26.07.2010 18:00 18,3 C 71 % 1011,7 hPa 0,0 l/m 1,1 km/h N-NW 12,9 C 18,3 C 4,4 km/h
26.07.2010 19:00 18,3 C 73 % 1011,8 hPa 0,0 l/m 0,9 km/h NW 13,4 C 18,3 C 4,0 km/h
26.07.2010 20:00 18,1 C 75 % 1011,9 hPa 0,0 l/m 0,1 km/h N 13,6 C 18,1 C 2,0 km/h
26.07.2010 21:00 17,5 C 74 % 1012,3 hPa 0,0 l/m 0,1 km/h N 12,9 C 17,5 C 1,2 km/h
26.07.2010 22:00 17,2 C 72 % 1012,4 hPa 0,0 l/m 0,2 km/h N 12,0 C 17,2 C 2,4 km/h
26.07.2010 23:00 17,4 C 68 % 1012,5 hPa 0,0 l/m 0,4 km/h N 11,4 C 17,4 C 3,2 km/h
27.07.2010 00:00 17,4 C 68 % 1012,6 hPa 0,0 l/m 0,3 km/h N 11,5 C 17,4 C 2,8 km/h
27.07.2010 01:00 17,3 C 69 % 1012,3 hPa 0,0 l/m 0,9 km/h N-NW 11,5 C 17,3 C 3,6 km/h
27.07.2010 02:00 17,2 C 70 % 1011,8 hPa 0,0 l/m 0,6 km/h N-NW 11,6 C 17,2 C 3,6 km/h
27.07.2010 03:00 16,9 C 71 % 1011,5 hPa 0,0 l/m 0,7 km/h N-NW 11,6 C 16,9 C 3,2 km/h
27.07.2010 04:00 16,7 C 71 % 1011,7 hPa 0,0 l/m 2,0 km/h N-NW 11,4 C 16,7 C 6,4 km/h
27.07.2010 05:00 16,6 C 71 % 1011,6 hPa 0,0 l/m 1,6 km/h NW 11,3 C 16,6 C 5,2 km/h
27.07.2010 06:00 16,6 C 71 % 1012,0 hPa 0,0 l/m 1,4 km/h N-NW 11,2 C 16,6 C 6,4 km/h
27.07.2010 07:00 16,9 C 72 % 1012,3 hPa 0,0 l/m 1,5 km/h N-NO 11,7 C 16,9 C 6,0 km/h
27.07.2010 08:00 18,0 C 69 % 1012,7 hPa 0,0 l/m 3,7 km/h N-NW 12,3 C 18,0 C 11,3 km/h
27.07.2010 09:00 18,8 C 68 % 1013,0 hPa 0,0 l/m 3,1 km/h NW 12,7 C 18,8 C 12,5 km/h
27.07.2010 10:00 19,6 C 66 % 1013,1 hPa 0,0 l/m 3,6 km/h NW 13,0 C 19,6 C 11,3 km/h
27.07.2010 11:00 20,5 C 63 % 1013,2 hPa 0,0 l/m 3,7 km/h N-NW 13,1 C 20,5 C 11,7 km/h
27.07.2010 12:00 22,5 C 57 % 1012,9 hPa 0,0 l/m 3,9 km/h S-SO 13,5 C 22,5 C 12,1 km/h
27.07.2010 13:00 24,0 C 54 % 1012,6 hPa 0,0 l/m 3,9 km/h O-NO 14,1 C 24,0 C 16,5 km/h
27.07.2010 14:00 24,6 C 52 % 1012,3 hPa 0,0 l/m 4,8 km/h NW 14,1 C 24,6 C 16,9 km/h
27.07.2010 15:00 21,2 C 59 % 1012,5 hPa 0,0 l/m 4,5 km/h SW 12,9 C 21,1 C 18,9 km/h
27.07.2010 16:00 22,2 C 61 % 1012,3 hPa 0,0 l/m 4,6 km/h SW 14,3 C 22,2 C 14,9 km/h
27.07.2010 17:00 22,0 C 58 % 1012,4 hPa 0,0 l/m 5,4 km/h N-NO 13,2 C 22,0 C 23,7 km/h
27.07.2010 18:00 20,8 C 59 % 1012,4 hPa 0,0 l/m 5,8 km/h S-SO 12,4 C 20,8 C 22,1 km/h
27.07.2010 19:00 19,8 C 63 % 1012,6 hPa 0,0 l/m 5,7 km/h S-SW 12,5 C 19,8 C 24,1 km/h
27.07.2010 20:00 19,2 C 67 % 1012,8 hPa 0,0 l/m 5,8 km/h W-SW 12,8 C 19,2 C 22,9 km/h
27.07.2010 21:00 19,2 C 67 % 1013,1 hPa 0,0 l/m 5,3 km/h N-NO 12,8 C 19,1 C 19,7 km/h
27.07.2010 22:00 19,1 C 69 % 1013,4 hPa 0,0 l/m 7,9 km/h S-SW 13,2 C 18,5 C 28,2 km/h
27.07.2010 23:00 18,8 C 70 % 1013,5 hPa 0,0 l/m 6,6 km/h SW 13,2 C 18,6 C 25,8 km/h
28.07.2010 00:00 18,7 C 70 % 1013,6 hPa 0,0 l/m 6,6 km/h W 13,1 C 18,4 C 27,0 km/h
28.07.2010 01:00 18,4 C 70 % 1013,5 hPa 0,0 l/m 6,3 km/h W-SW 12,9 C 18,3 C 26,1 km/h
28.07.2010 02:00 18,2 C 72 % 1013,3 hPa 0,0 l/m 4,9 km/h W 13,1 C 18,2 C 20,5 km/h
28.07.2010 03:00 18,2 C 72 % 1013,3 hPa 0,0 l/m 6,0 km/h W 13,1 C 18,2 C 23,7 km/h
28.07.2010 04:00 18,1 C 73 % 1013,2 hPa 0,0 l/m 5,0 km/h NW 13,2 C 18,1 C 19,3 km/h
28.07.2010 05:00 18,0 C 73 % 1013,2 hPa 0,0 l/m 5,0 km/h NW 13,1 C 18,0 C 20,9 km/h
28.07.2010 06:00 18,0 C 74 % 1013,5 hPa 0,0 l/m 4,8 km/h N-NO 13,2 C 18,0 C 24,1 km/h
28.07.2010 07:00 18,5 C 73 % 1013,8 hPa 0,0 l/m 5,8 km/h O-SO 13,5 C 18,4 C 22,9 km/h
28.07.2010 08:00 19,1 C 71 % 1014,0 hPa 0,0 l/m 5,9 km/h W 13,7 C 19,1 C 23,7 km/h
28.07.2010 09:00 19,9 C 68 % 1013,8 hPa 0,0 l/m 7,8 km/h W 13,8 C 19,3 C 27,8 km/h
28.07.2010 10:00 20,7 C 66 % 1013,8 hPa 0,0 l/m 6,3 km/h S-SW 14,1 C 20,5 C 22,0 km/h
28.07.2010 11:00 22,7 C 57 % 1013,0 hPa 0,0 l/m 6,6 km/h O-SO 13,7 C 22,6 C 20,9 km/h
28.07.2010 12:00 22,3 C 59 % 1013,0 hPa 0,0 l/m 6,6 km/h O-SO 13,7 C 22,0 C 24,5 km/h
28.07.2010 13:00 22,3 C 58 % 1013,0 hPa 0,0 l/m 6,2 km/h W-NW 13,5 C 22,0 C 22,5 km/h
28.07.2010 14:00 23,6 C 55 % 1012,4 hPa 0,0 l/m 6,4 km/h S-SO 14,1 C 23,5 C 20,9 km/h
28.07.2010 15:00 24,9 C 49 % 1011,6 hPa 0,0 l/m 8,5 km/h O 13,4 C 24,4 C 26,1 km/h
28.07.2010 16:00 24,3 C 50 % 1011,3 hPa 0,0 l/m 6,6 km/h W-SW 13,1 C 24,1 C 22,9 km/h
28.07.2010 17:00 24,8 C 48 % 1011,0 hPa 0,0 l/m 6,3 km/h S-SW 13,1 C 24,8 C 28,2 km/h
28.07.2010 18:00 23,7 C 48 % 1010,8 hPa 0,0 l/m 5,3 km/h SW 11,9 C 23,7 C 18,9 km/h
28.07.2010 19:00 22,7 C 50 % 1011,1 hPa 0,0 l/m 3,8 km/h SW 11,7 C 22,7 C 16,5 km/h
28.07.2010 20:00 22,2 C 54 % 1011,2 hPa 0,0 l/m 4,4 km/h O 12,3 C 22,2 C 19,7 km/h
28.07.2010 21:00 21,6 C 57 % 1011,4 hPa 0,0 l/m 4,1 km/h SW 12,5 C 21,6 C 18,9 km/h
28.07.2010 22:00 20,9 C 61 % 1011,6 hPa 0,0 l/m 3,9 km/h SO 13,0 C 20,9 C 16,1 km/h
28.07.2010 23:00 20,2 C 66 % 1011,6 hPa 0,0 l/m 4,2 km/h SO 13,5 C 20,2 C 19,7 km/h
29.07.2010 00:00 19,4 C 70 % 1011,5 hPa 0,0 l/m 4,2 km/h W-SW 13,7 C 19,4 C 21,7 km/h
29.07.2010 01:00 19,1 C 71 % 1011,2 hPa 0,0 l/m 3,1 km/h S-SO 13,7 C 19,1 C 17,7 km/h
29.07.2010 02:00 19,1 C 71 % 1010,6 hPa 0,0 l/m 2,5 km/h SW 13,7 C 19,1 C 13,7 km/h
29.07.2010 03:00 19,0 C 71 % 1010,4 hPa 0,0 l/m 2,6 km/h SW 13,6 C 19,0 C 14,1 km/h
29.07.2010 04:00 18,8 C 73 % 1010,4 hPa 0,0 l/m 1,6 km/h W-SW 13,8 C 18,8 C 9,3 km/h
29.07.2010 05:00 18,5 C 75 % 1010,3 hPa 0,0 l/m 0,8 km/h N 13,9 C 18,5 C 8,4 km/h
29.07.2010 06:00 18,4 C 76 % 1010,3 hPa 0,0 l/m 0,4 km/h N 14,0 C 18,4 C 5,2 km/h
29.07.2010 07:00 19,0 C 77 % 1010,5 hPa 0,0 l/m 1,1 km/h S-SW 14,8 C 19,0 C 6,4 km/h
29.07.2010 08:00 20,2 C 72 % 1010,3 hPa 0,0 l/m 2,1 km/h N-NO 15,0 C 20,2 C 9,3 km/h
29.07.2010 09:00 20,5 C 70 % 1010,0 hPa 0,0 l/m 1,2 km/h NW 14,8 C 20,5 C 9,3 km/h
29.07.2010 10:00 21,5 C 65 % 1009,5 hPa 0,0 l/m 1,5 km/h S-SO 14,6 C 21,5 C 8,4 km/h
29.07.2010 11:00 24,9 C 56 % 1009,0 hPa 0,0 l/m 1,0 km/h NO 15,4 C 24,9 C 5,6 km/h
29.07.2010 12:00 25,9 C 53 % 1008,5 hPa 0,0 l/m 0,9 km/h S-SO 15,6 C 25,9 C 6,4 km/h
29.07.2010 13:00 26,0 C 54 % 1008,0 hPa 0,0 l/m 1,3 km/h O 15,9 C 26,0 C 6,0 km/h
29.07.2010 14:00 23,9 C 61 % 1007,9 hPa 0,0 l/m 0,9 km/h NO 15,8 C 23,9 C 5,6 km/h
29.07.2010 15:00 21,7 C 65 % 1007,9 hPa 0,0 l/m 1,1 km/h NO 14,9 C 21,7 C 5,6 km/h
29.07.2010 16:00 21,3 C 69 % 1008,0 hPa 0,0 l/m 2,5 km/h W 15,2 C 21,3 C 13,3 km/h
29.07.2010 17:00 18,7 C 78 % 1008,8 hPa 1,0 l/m 3,8 km/h SW 14,8 C 18,7 C 14,1 km/h
29.07.2010 18:00 16,8 C 82 % 1009,6 hPa 6,8 l/m 2,6 km/h W-SW 13,8 C 16,8 C 12,5 km/h
29.07.2010 19:00 15,8 C 84 % 1009,2 hPa 0,0 l/m 1,6 km/h W-SW 13,1 C 15,8 C 9,3 km/h
29.07.2010 20:00 15,6 C 84 % 1009,3 hPa 0,0 l/m 1,6 km/h S 12,8 C 15,6 C 10,5 km/h
29.07.2010 21:00 15,8 C 84 % 1010,1 hPa 0,8 l/m 0,3 km/h N 13,0 C 15,8 C 3,6 km/h
29.07.2010 22:00 15,4 C 85 % 1010,2 hPa 0,5 l/m 0,2 km/h SO 12,9 C 15,4 C 2,8 km/h
29.07.2010 23:00 14,9 C 85 % 1010,5 hPa 0,8 l/m 0,9 km/h N 12,4 C 14,9 C 6,4 km/h
30.07.2010 00:00 14,8 C 86 % 1010,3 hPa 1,3 l/m 0,4 km/h N 12,4 C 14,8 C 4,4 km/h
30.07.2010 01:00 14,4 C 87 % 1010,0 hPa 0,5 l/m 0,0 km/h N 12,2 C 14,4 C 0,8 km/h
30.07.2010 02:00 14,2 C 87 % 1010,1 hPa 0,5 l/m 0,1 km/h N 12,1 C 14,2 C 2,0 km/h
30.07.2010 03:00 14,2 C 88 % 1010,2 hPa 0,0 l/m 0,0 km/h N 12,2 C 14,2 C 0,0 km/h
30.07.2010 04:00 14,2 C 88 % 1010,2 hPa 0,0 l/m 0,0 km/h N 12,3 C 14,2 C 0,4 km/h
30.07.2010 05:00 14,4 C 89 % 1010,4 hPa 1,8 l/m 0,1 km/h N 12,5 C 14,4 C 2,0 km/h
30.07.2010 06:00 14,4 C 89 % 1010,4 hPa 0,8 l/m 0,1 km/h N 12,7 C 14,4 C 1,6 km/h
30.07.2010 07:00 14,8 C 89 % 1010,6 hPa 0,8 l/m 0,4 km/h N 13,0 C 14,8 C 3,6 km/h
30.07.2010 08:00 14,9 C 89 % 1011,2 hPa 1,6 l/m 0,8 km/h N 13,1 C 14,9 C 4,8 km/h
30.07.2010 09:00 15,1 C 89 % 1011,5 hPa 0,5 l/m 1,0 km/h N-NW 13,3 C 15,1 C 6,4 km/h
30.07.2010 10:00 15,7 C 89 % 1011,8 hPa 0,0 l/m 3,0 km/h N-NW 13,9 C 15,7 C 8,9 km/h
30.07.2010 11:00 16,5 C 87 % 1012,2 hPa 0,3 l/m 3,1 km/h NW 14,4 C 16,5 C 8,4 km/h
30.07.2010 12:00 17,3 C 84 % 1012,6 hPa 0,0 l/m 2,6 km/h W-SW 14,5 C 17,3 C 10,5 km/h
30.07.2010 13:00 17,8 C 80 % 1012,9 hPa 0,0 l/m 2,0 km/h S-SO 14,3 C 17,8 C 8,4 km/h
30.07.2010 14:00 18,4 C 78 % 1013,0 hPa 0,0 l/m 2,5 km/h S 14,6 C 18,4 C 9,3 km/h
30.07.2010 15:00 18,6 C 75 % 1013,4 hPa 0,0 l/m 4,6 km/h NW 14,0 C 18,6 C 11,3 km/h
30.07.2010 16:00 18,5 C 76 % 1013,7 hPa 0,0 l/m 2,6 km/h W 14,2 C 18,5 C 9,3 km/h
30.07.2010 17:00 19,4 C 71 % 1014,0 hPa 0,0 l/m 4,2 km/h NW 13,9 C 19,4 C 14,1 km/h
30.07.2010 18:00 19,0 C 72 % 1014,4 hPa 0,0 l/m 3,9 km/h NW 13,9 C 19,0 C 13,3 km/h
30.07.2010 19:00 18,3 C 76 % 1014,8 hPa 0,0 l/m 3,6 km/h N-NW 13,9 C 18,3 C 10,5 km/h
30.07.2010 20:00 17,7 C 77 % 1015,6 hPa 0,0 l/m 1,5 km/h W 13,6 C 17,7 C 6,8 km/h
30.07.2010 21:00 17,0 C 76 % 1016,2 hPa 0,0 l/m 1,1 km/h S-SW 12,8 C 17,0 C 8,8 km/h
30.07.2010 22:00 16,9 C 78 % 1016,2 hPa 0,0 l/m 1,7 km/h SW 12,9 C 16,9 C 7,2 km/h
30.07.2010 23:00 16,7 C 80 % 1016,5 hPa 0,0 l/m 1,5 km/h W-SW 13,2 C 16,7 C 6,4 km/h
31.07.2010 00:00 16,5 C 80 % 1016,7 hPa 0,0 l/m 0,9 km/h N-NW 13,1 C 16,5 C 4,8 km/h
31.07.2010 01:00 16,2 C 81 % 1016,7 hPa 0,0 l/m 1,5 km/h NW 13,0 C 16,2 C 6,8 km/h
31.07.2010 02:00 16,1 C 80 % 1016,5 hPa 0,0 l/m 1,4 km/h NW 12,7 C 16,1 C 6,0 km/h
31.07.2010 03:00 16,0 C 80 % 1016,5 hPa 0,0 l/m 0,9 km/h N-NW 12,6 C 16,0 C 4,0 km/h
31.07.2010 04:00 15,8 C 80 % 1016,5 hPa 0,0 l/m 1,3 km/h NW 12,3 C 15,8 C 6,4 km/h
31.07.2010 05:00 15,6 C 79 % 1016,5 hPa 0,0 l/m 0,6 km/h NW 12,0 C 15,6 C 6,0 km/h
31.07.2010 06:00 15,5 C 79 % 1016,6 hPa 0,0 l/m 1,6 km/h SO 11,9 C 15,5 C 6,4 km/h
31.07.2010 07:00 16,1 C 79 % 1017,2 hPa 0,0 l/m 2,6 km/h NW 12,4 C 16,1 C 8,1 km/h
31.07.2010 08:00 17,0 C 77 % 1017,2 hPa 0,0 l/m 3,5 km/h O-SO 13,0 C 17,0 C 10,1 km/h
31.07.2010 09:00 18,0 C 75 % 1017,2 hPa 0,0 l/m 4,3 km/h SW 13,4 C 18,0 C 12,9 km/h
31.07.2010 10:00 18,6 C 73 % 1017,3 hPa 0,0 l/m 4,6 km/h NW 13,6 C 18,6 C 12,1 km/h
31.07.2010 11:00 19,6 C 71 % 1017,3 hPa 0,0 l/m 3,2 km/h W 14,3 C 19,6 C 11,7 km/h
31.07.2010 12:00 21,3 C 68 % 1017,2 hPa 0,0 l/m 3,4 km/h NW 15,0 C 21,3 C 10,5 km/h
31.07.2010 13:00 22,6 C 63 % 1016,8 hPa 0,0 l/m 4,2 km/h N-NW 15,1 C 22,6 C 11,7 km/h
31.07.2010 14:00 24,1 C 59 % 1016,6 hPa 0,0 l/m 4,2 km/h N-NW 15,6 C 24,1 C 12,1 km/h
31.07.2010 15:00 24,7 C 56 % 1016,4 hPa 0,0 l/m 4,5 km/h N 15,3 C 24,7 C 11,3 km/h
31.07.2010 16:00 24,5 C 57 % 1016,4 hPa 0,0 l/m 2,1 km/h NW 15,5 C 24,5 C 8,9 km/h
31.07.2010 17:00 24,2 C 58 % 1016,2 hPa 0,0 l/m 2,0 km/h N-NO 15,4 C 24,2 C 7,2 km/h
31.07.2010 18:00 23,4 C 59 % 1015,8 hPa 0,0 l/m 2,0 km/h N-NW 14,8 C 23,4 C 6,0 km/h
31.07.2010 19:00 22,8 C 60 % 1015,7 hPa 0,0 l/m 2,0 km/h N-NW 14,6 C 22,8 C 6,4 km/h
31.07.2010 20:00 22,0 C 64 % 1016,2 hPa 0,0 l/m 0,0 km/h N 14,8 C 22,0 C 0,8 km/h
31.07.2010 21:00 20,2 C 70 % 1016,5 hPa 0,0 l/m 0,0 km/h N 14,5 C 20,2 C 0,8 km/h
31.07.2010 22:00 18,4 C 75 % 1016,9 hPa 0,0 l/m 0,0 km/h N 13,9 C 18,4 C 0,4 km/h
31.07.2010 23:00 17,3 C 80 % 1016,9 hPa 0,0 l/m 0,0 km/h N 13,7 C 17,3 C 0,0 km/h
01.08.2010 00:00 16,5 C 82 % 1016,8 hPa 0,0 l/m 0,3 km/h N 13,4 C 16,5 C 4,4 km/h
01.08.2010 01:00 16,6 C 82 % 1016,7 hPa 0,0 l/m 0,4 km/h N 13,5 C 16,6 C 4,0 km/h
01.08.2010 02:00 16,7 C 81 % 1016,5 hPa 0,0 l/m 0,3 km/h N 13,3 C 16,7 C 4,4 km/h
01.08.2010 03:00 16,4 C 80 % 1016,3 hPa 0,0 l/m 0,3 km/h N 13,0 C 16,4 C 5,6 km/h
01.08.2010 04:00 16,0 C 81 % 1016,1 hPa 0,0 l/m 0,1 km/h N 12,6 C 16,0 C 2,4 km/h
01.08.2010 05:00 15,0 C 82 % 1016,6 hPa 0,0 l/m 0,1 km/h N 12,0 C 15,0 C 2,4 km/h
01.08.2010 06:00 14,8 C 85 % 1016,9 hPa 0,0 l/m 0,1 km/h N 12,3 C 14,8 C 1,6 km/h
01.08.2010 07:00 15,9 C 86 % 1017,1 hPa 0,0 l/m 0,3 km/h N 13,6 C 15,9 C 4,0 km/h
01.08.2010 08:00 17,6 C 85 % 1017,1 hPa 0,0 l/m 0,4 km/h N 15,0 C 17,6 C 4,4 km/h
01.08.2010 09:00 19,6 C 76 % 1017,1 hPa 0,0 l/m 0,7 km/h NW 15,3 C 19,6 C 3,6 km/h
01.08.2010 10:00 21,5 C 67 % 1017,1 hPa 0,0 l/m 1,6 km/h N 15,1 C 21,5 C 4,4 km/h
01.08.2010 11:00 24,2 C 58 % 1017,0 hPa 0,0 l/m 1,5 km/h N-NO 15,3 C 24,2 C 5,6 km/h
01.08.2010 12:00 27,2 C 48 % 1016,8 hPa 0,0 l/m 1,6 km/h NW 15,1 C 27,2 C 6,4 km/h
01.08.2010 13:00 28,1 C 46 % 1016,5 hPa 0,0 l/m 1,9 km/h N 15,3 C 28,1 C 6,0 km/h
01.08.2010 14:00 29,6 C 41 % 1015,9 hPa 0,0 l/m 1,8 km/h N 14,9 C 29,6 C 7,2 km/h
01.08.2010 15:00 30,4 C 39 % 1015,5 hPa 0,0 l/m 2,0 km/h SW 14,6 C 30,4 C 7,2 km/h
01.08.2010 16:00 31,0 C 37 % 1015,3 hPa 0,0 l/m 1,5 km/h W-NW 14,6 C 31,0 C 5,6 km/h
01.08.2010 17:00 30,5 C 38 % 1014,9 hPa 0,0 l/m 1,0 km/h NW 14,5 C 30,5 C 4,8 km/h
01.08.2010 18:00 28,5 C 42 % 1014,7 hPa 0,0 l/m 0,5 km/h N 14,1 C 28,5 C 2,8 km/h
01.08.2010 19:00 26,5 C 48 % 1014,8 hPa 0,0 l/m 0,0 km/h N 14,6 C 26,5 C 0,4 km/h
01.08.2010 20:00 24,6 C 57 % 1015,1 hPa 0,0 l/m 0,0 km/h N 15,6 C 24,6 C 0,0 km/h
01.08.2010 21:00 22,0 C 67 % 1015,4 hPa 0,0 l/m 0,0 km/h N 15,6 C 22,0 C 0,0 km/h
01.08.2010 22:00 20,2 C 72 % 1015,5 hPa 0,0 l/m 0,0 km/h N 15,0 C 20,2 C 0,0 km/h
01.08.2010 23:00 19,3 C 75 % 1015,3 hPa 0,0 l/m 0,0 km/h N 14,7 C 19,3 C 0,4 km/h
Min-Datum _ 30.07.10 01.08.10 29.07.10 - 26.07.10 - 26.07.10 30.07.10 26.07.10
_ Min-Zeit 02:45 16:45 16:00 - 20:45 - 01:30 02:45 21:45
Minimum _ 14,1 C 36 % 1007,5 hPa - 0,0 km/h - 10,3 C 14,1 C 0,0 km/h
Max-Datum _ 01.08.10 30.07.10 31.07.10 29.07.10 28.07.10 - 29.07.10 01.08.10 28.07.10
_ Max-Zeit 16:30 05:30 07:45 18:00 09:15 - 13:00 16:30 09:15
Maximum _ 31,1 C 89 % 1017,4 hPa 6,8 l/m 9,6 km/h
W
- 16,4 C 31,1 C 38,6 km/h
SW
Durchschnitt _ 19,2 C 70 % 1013,2 hPa #18,5 l/m 2,5 km/h NW 13,3 C 19,2 C 10,0 km/h